Clarksville, AR

3:52 PM CDT on July 25, 2016 (GMT -0500)
The GRAPHIC(West Main) | | Change Station

Elev 410 ft 35.47 °N, 93.50 °W | Updated 17 seconds ago

Clear
Clear
81.3 °F
Feels Like 92 °F
N
0.0
Wind Variable Wind from WNW
Gusts 0.0 mph

Today
High -- | Low -- °F
--% Chance of Precip.
Yesterday
High -- | Low -- °F
Precip. -- in
Pressure 29.94 in
Visibility 10.0 miles
Clouds Clear
Heat Index 92 °F
Dew Point 81 °F
Humidity 100%
Rainfall 1.65 in
Snow Depth Not available.
6:17 AM 8:22 PM
Waning Gibbous, 62% visible
METAR KRUE 251953Z AUTO 06005KT 10SM CLR 31/22 A2996 RMK AO2 SLP136 T03110222 TSNO
Pressure 29.94 in
Visibility 10.0 miles
Clouds Clear
Heat Index 92 °F
Dew Point 81 °F
Humidity 100%
Rainfall 1.65 in
Snow Depth Not available.
6:17 AM 8:22 PM
Waning Gibbous, 62% visible
METAR KRUE 251953Z AUTO 06005KT 10SM CLR 31/22 A2996 RMK AO2 SLP136 T03110222 TSNO

10-Day Weather Forecast

Almanac

Astronomy

Jul. 25, 2016 Rise Set
Actual Time
Civil Twilight
Nautical Twilight
Astronomical Twilight
Moon
Length of Visible Light
Length of Day
Tomorrow will be .
, % of the Moon is Illuminated

Today's Extremes

State Highs State Lows

Community

WunderPhotos

Upload Photos

1,927,417 photos uploaded!

WunderBlog® & News

Nearby

Air Quality

  Air Quality AQ Index Pollutant
Not available.

Snow Depth

Station Depth Elevation

Earthquake Activity

City Distance Mag. Time & Date
Minimum magnitude displayed is 2.5.

Coastal Water Temperatures

Place Temperature

Stations

Nearby Weather Stations

Station Location Temp. Windchill Dew Point Humidity Wind Precip. Elev Updated Type
                   

Watches & Warnings

There are currently no watches in effect.